sensor_id;sensor_type;location;lat;lon;timestamp;P1;durP1;ratioP1;P2;durP2;ratioP2
15082;SDS011;7640;53.116;6.878;2023-06-26T00:00:13;15.68;;;14.05;;
15082;SDS011;7640;53.116;6.878;2023-06-26T00:02:46;15.70;;;14.30;;
15082;SDS011;7640;53.116;6.878;2023-06-26T00:05:18;15.02;;;13.60;;
15082;SDS011;7640;53.116;6.878;2023-06-26T00:07:51;14.48;;;13.10;;
15082;SDS011;7640;53.116;6.878;2023-06-26T00:10:22;16.05;;;14.43;;
15082;SDS011;7640;53.116;6.878;2023-06-26T00:12:54;15.27;;;13.88;;
15082;SDS011;7640;53.116;6.878;2023-06-26T00:15:26;16.00;;;14.40;;
15082;SDS011;7640;53.116;6.878;2023-06-26T00:17:59;15.80;;;14.20;;
15082;SDS011;7640;53.116;6.878;2023-06-26T00:20:34;16.20;;;14.70;;
15082;SDS011;7640;53.116;6.878;2023-06-26T00:23:10;16.67;;;15.18;;
15082;SDS011;7640;53.116;6.878;2023-06-26T00:25:46;14.95;;;13.63;;
15082;SDS011;7640;53.116;6.878;2023-06-26T00:28:17;15.50;;;14.10;;
15082;SDS011;7640;53.116;6.878;2023-06-26T00:30:46;16.65;;;15.00;;
15082;SDS011;7640;53.116;6.878;2023-06-26T00:33:27;15.88;;;14.38;;
15082;SDS011;7640;53.116;6.878;2023-06-26T00:35:59;15.55;;;14.15;;
15082;SDS011;7640;53.116;6.878;2023-06-26T00:38:35;16.47;;;14.97;;
15082;SDS011;7640;53.116;6.878;2023-06-26T00:41:08;15.95;;;14.45;;
15082;SDS011;7640;53.116;6.878;2023-06-26T00:43:43;16.80;;;15.20;;
15082;SDS011;7640;53.116;6.878;2023-06-26T00:46:15;15.13;;;13.68;;
15082;SDS011;7640;53.116;6.878;2023-06-26T00:48:50;15.85;;;14.18;;
15082;SDS011;7640;53.116;6.878;2023-06-26T00:51:23;16.40;;;14.90;;
15082;SDS011;7640;53.116;6.878;2023-06-26T00:53:57;15.75;;;14.35;;
15082;SDS011;7640;53.116;6.878;2023-06-26T00:56:28;16.40;;;14.90;;
15082;SDS011;7640;53.116;6.878;2023-06-26T00:59:00;16.40;;;14.75;;
15082;SDS011;7640;53.116;6.878;2023-06-26T01:01:42;16.08;;;14.60;;
15082;SDS011;7640;53.116;6.878;2023-06-26T01:04:19;16.77;;;15.27;;
15082;SDS011;7640;53.116;6.878;2023-06-26T01:06:55;15.35;;;14.07;;
15082;SDS011;7640;53.116;6.878;2023-06-26T01:09:28;15.98;;;14.50;;
15082;SDS011;7640;53.116;6.878;2023-06-26T01:12:02;16.20;;;14.80;;
15082;SDS011;7640;53.116;6.878;2023-06-26T01:14:34;17.60;;;15.75;;
15082;SDS011;7640;53.116;6.878;2023-06-26T01:17:12;16.58;;;15.00;;
15082;SDS011;7640;53.116;6.878;2023-06-26T01:19:45;15.60;;;14.20;;
15082;SDS011;7640;53.116;6.878;2023-06-26T01:22:20;15.85;;;14.20;;
15082;SDS011;7640;53.116;6.878;2023-06-26T01:25:11;16.40;;;14.90;;
15082;SDS011;7640;53.116;6.878;2023-06-26T01:27:53;16.90;;;15.40;;
15082;SDS011;7640;53.116;6.878;2023-06-26T01:30:31;17.23;;;15.63;;
15082;SDS011;7640;53.116;6.878;2023-06-26T01:33:06;15.57;;;14.15;;
15082;SDS011;7640;53.116;6.878;2023-06-26T01:35:40;16.13;;;14.68;;
15082;SDS011;7640;53.116;6.878;2023-06-26T01:38:12;16.25;;;14.65;;
15082;SDS011;7640;53.116;6.878;2023-06-26T01:40:44;16.02;;;14.48;;
15082;SDS011;7640;53.116;6.878;2023-06-26T01:43:18;16.80;;;15.10;;
15082;SDS011;7640;53.116;6.878;2023-06-26T01:45:57;16.98;;;15.43;;
15082;SDS011;7640;53.116;6.878;2023-06-26T01:48:42;15.88;;;14.48;;
15082;SDS011;7640;53.116;6.878;2023-06-26T01:51:20;17.77;;;15.97;;
15082;SDS011;7640;53.116;6.878;2023-06-26T01:53:56;15.13;;;13.73;;
15082;SDS011;7640;53.116;6.878;2023-06-26T01:56:34;17.80;;;16.05;;
15082;SDS011;7640;53.116;6.878;2023-06-26T01:59:10;16.17;;;14.75;;
15082;SDS011;7640;53.116;6.878;2023-06-26T02:01:42;16.77;;;15.35;;
15082;SDS011;7640;53.116;6.878;2023-06-26T02:04:12;16.48;;;14.90;;
15082;SDS011;7640;53.116;6.878;2023-06-26T02:06:43;17.25;;;15.65;;
15082;SDS011;7640;53.116;6.878;2023-06-26T02:09:13;16.77;;;15.18;;
15082;SDS011;7640;53.116;6.878;2023-06-26T02:11:45;18.25;;;16.58;;
15082;SDS011;7640;53.116;6.878;2023-06-26T02:14:16;15.73;;;14.30;;
15082;SDS011;7640;53.116;6.878;2023-06-26T02:16:46;18.30;;;16.60;;
15082;SDS011;7640;53.116;6.878;2023-06-26T02:19:16;19.60;;;17.70;;
15082;SDS011;7640;53.116;6.878;2023-06-26T02:21:49;18.75;;;17.05;;
15082;SDS011;7640;53.116;6.878;2023-06-26T02:24:19;18.77;;;17.10;;
15082;SDS011;7640;53.116;6.878;2023-06-26T02:26:49;19.85;;;17.83;;
15082;SDS011;7640;53.116;6.878;2023-06-26T02:29:22;19.15;;;17.35;;
15082;SDS011;7640;53.116;6.878;2023-06-26T02:31:52;18.73;;;16.98;;
15082;SDS011;7640;53.116;6.878;2023-06-26T02:34:24;18.27;;;16.60;;
15082;SDS011;7640;53.116;6.878;2023-06-26T02:36:59;18.08;;;16.35;;
15082;SDS011;7640;53.116;6.878;2023-06-26T02:39:37;19.50;;;17.70;;
15082;SDS011;7640;53.116;6.878;2023-06-26T02:42:09;19.52;;;17.83;;
15082;SDS011;7640;53.116;6.878;2023-06-26T02:44:46;19.48;;;17.65;;
15082;SDS011;7640;53.116;6.878;2023-06-26T02:47:16;19.88;;;17.98;;
15082;SDS011;7640;53.116;6.878;2023-06-26T02:49:47;18.60;;;16.90;;
15082;SDS011;7640;53.116;6.878;2023-06-26T02:52:18;19.00;;;17.33;;
15082;SDS011;7640;53.116;6.878;2023-06-26T02:54:50;20.88;;;18.90;;
15082;SDS011;7640;53.116;6.878;2023-06-26T02:57:21;19.50;;;17.63;;
15082;SDS011;7640;53.116;6.878;2023-06-26T02:59:53;19.27;;;17.48;;
15082;SDS011;7640;53.116;6.878;2023-06-26T03:02:27;19.88;;;17.98;;
15082;SDS011;7640;53.116;6.878;2023-06-26T03:05:00;21.55;;;19.55;;
15082;SDS011;7640;53.116;6.878;2023-06-26T03:07:44;19.45;;;17.65;;
15082;SDS011;7640;53.116;6.878;2023-06-26T03:10:14;20.63;;;18.75;;
15082;SDS011;7640;53.116;6.878;2023-06-26T03:12:46;19.23;;;17.27;;
15082;SDS011;7640;53.116;6.878;2023-06-26T03:15:20;19.65;;;17.77;;
15082;SDS011;7640;53.116;6.878;2023-06-26T03:17:54;19.35;;;17.50;;
15082;SDS011;7640;53.116;6.878;2023-06-26T03:20:33;18.33;;;16.53;;
15082;SDS011;7640;53.116;6.878;2023-06-26T03:23:09;19.17;;;17.47;;
15082;SDS011;7640;53.116;6.878;2023-06-26T03:25:41;19.48;;;17.67;;
15082;SDS011;7640;53.116;6.878;2023-06-26T03:28:14;18.73;;;17.13;;
15082;SDS011;7640;53.116;6.878;2023-06-26T03:31:01;18.83;;;17.13;;
15082;SDS011;7640;53.116;6.878;2023-06-26T03:33:37;18.23;;;16.63;;
15082;SDS011;7640;53.116;6.878;2023-06-26T03:36:10;18.23;;;16.48;;
15082;SDS011;7640;53.116;6.878;2023-06-26T03:38:44;18.33;;;16.42;;
15082;SDS011;7640;53.116;6.878;2023-06-26T03:41:15;18.73;;;16.92;;
15082;SDS011;7640;53.116;6.878;2023-06-26T03:43:47;17.13;;;15.53;;
15082;SDS011;7640;53.116;6.878;2023-06-26T03:46:21;16.87;;;15.30;;
15082;SDS011;7640;53.116;6.878;2023-06-26T03:48:54;17.30;;;15.60;;
15082;SDS011;7640;53.116;6.878;2023-06-26T03:51:23;16.90;;;15.27;;
15082;SDS011;7640;53.116;6.878;2023-06-26T03:53:55;16.38;;;14.88;;
15082;SDS011;7640;53.116;6.878;2023-06-26T03:56:27;17.00;;;15.45;;
15082;SDS011;7640;53.116;6.878;2023-06-26T03:58:59;16.33;;;14.93;;
15082;SDS011;7640;53.116;6.878;2023-06-26T04:01:34;15.63;;;13.80;;
15082;SDS011;7640;53.116;6.878;2023-06-26T04:04:07;15.80;;;14.35;;
15082;SDS011;7640;53.116;6.878;2023-06-26T04:06:39;16.88;;;15.20;;
15082;SDS011;7640;53.116;6.878;2023-06-26T04:09:14;16.57;;;14.97;;
15082;SDS011;7640;53.116;6.878;2023-06-26T04:11:45;15.05;;;13.55;;
15082;SDS011;7640;53.116;6.878;2023-06-26T04:14:18;16.38;;;14.85;;
15082;SDS011;7640;53.116;6.878;2023-06-26T04:17:06;15.68;;;14.27;;
15082;SDS011;7640;53.116;6.878;2023-06-26T04:19:37;15.55;;;14.05;;
15082;SDS011;7640;53.116;6.878;2023-06-26T04:22:11;16.50;;;15.00;;
15082;SDS011;7640;53.116;6.878;2023-06-26T04:24:43;15.10;;;13.70;;
15082;SDS011;7640;53.116;6.878;2023-06-26T04:27:14;16.33;;;14.68;;
15082;SDS011;7640;53.116;6.878;2023-06-26T04:29:46;16.58;;;14.98;;
15082;SDS011;7640;53.116;6.878;2023-06-26T04:32:16;16.92;;;15.27;;
15082;SDS011;7640;53.116;6.878;2023-06-26T04:34:46;16.20;;;14.70;;
15082;SDS011;7640;53.116;6.878;2023-06-26T04:37:26;14.80;;;13.40;;
15082;SDS011;7640;53.116;6.878;2023-06-26T04:40:06;15.75;;;14.25;;
15082;SDS011;7640;53.116;6.878;2023-06-26T04:42:49;15.48;;;13.98;;
15082;SDS011;7640;53.116;6.878;2023-06-26T04:45:20;14.93;;;13.52;;
15082;SDS011;7640;53.116;6.878;2023-06-26T04:48:14;14.55;;;13.07;;
15082;SDS011;7640;53.116;6.878;2023-06-26T04:50:45;14.20;;;12.90;;
15082;SDS011;7640;53.116;6.878;2023-06-26T04:53:21;14.52;;;13.23;;
15082;SDS011;7640;53.116;6.878;2023-06-26T04:55:58;13.30;;;12.10;;
15082;SDS011;7640;53.116;6.878;2023-06-26T04:58:28;14.20;;;12.80;;
15082;SDS011;7640;53.116;6.878;2023-06-26T05:01:08;13.98;;;12.57;;
15082;SDS011;7640;53.116;6.878;2023-06-26T05:03:45;13.15;;;11.68;;
15082;SDS011;7640;53.116;6.878;2023-06-26T05:06:16;13.18;;;11.88;;
15082;SDS011;7640;53.116;6.878;2023-06-26T05:08:46;13.43;;;10.65;;
15082;SDS011;7640;53.116;6.878;2023-06-26T05:11:19;11.35;;;10.25;;
15082;SDS011;7640;53.116;6.878;2023-06-26T05:13:50;12.10;;;10.43;;
15082;SDS011;7640;53.116;6.878;2023-06-26T05:16:21;14.98;;;10.15;;
15082;SDS011;7640;53.116;6.878;2023-06-26T05:18:55;11.80;;;9.55;;
15082;SDS011;7640;53.116;6.878;2023-06-26T05:21:28;12.65;;;10.07;;
15082;SDS011;7640;53.116;6.878;2023-06-26T05:24:00;12.10;;;9.98;;
15082;SDS011;7640;53.116;6.878;2023-06-26T05:26:38;14.65;;;10.55;;
15082;SDS011;7640;53.116;6.878;2023-06-26T05:29:12;15.33;;;10.90;;
15082;SDS011;7640;53.116;6.878;2023-06-26T05:31:43;15.02;;;11.02;;
15082;SDS011;7640;53.116;6.878;2023-06-26T05:34:19;13.48;;;10.43;;
15082;SDS011;7640;53.116;6.878;2023-06-26T05:36:57;13.13;;;10.80;;
15082;SDS011;7640;53.116;6.878;2023-06-26T05:39:30;11.77;;;10.55;;
15082;SDS011;7640;53.116;6.878;2023-06-26T05:42:04;14.83;;;10.97;;
15082;SDS011;7640;53.116;6.878;2023-06-26T05:44:39;14.00;;;11.27;;
15082;SDS011;7640;53.116;6.878;2023-06-26T05:47:12;15.30;;;11.95;;
15082;SDS011;7640;53.116;6.878;2023-06-26T05:49:47;14.70;;;11.25;;
15082;SDS011;7640;53.116;6.878;2023-06-26T05:52:19;16.40;;;12.55;;
15082;SDS011;7640;53.116;6.878;2023-06-26T05:55:00;17.08;;;12.05;;
15082;SDS011;7640;53.116;6.878;2023-06-26T05:57:36;15.50;;;11.85;;
15082;SDS011;7640;53.116;6.878;2023-06-26T06:00:11;15.93;;;10.60;;
15082;SDS011;7640;53.116;6.878;2023-06-26T06:02:44;17.63;;;12.23;;
15082;SDS011;7640;53.116;6.878;2023-06-26T06:05:15;17.95;;;11.98;;
15082;SDS011;7640;53.116;6.878;2023-06-26T06:07:46;14.20;;;11.55;;
15082;SDS011;7640;53.116;6.878;2023-06-26T06:10:16;15.73;;;11.50;;
15082;SDS011;7640;53.116;6.878;2023-06-26T06:12:48;18.13;;;11.53;;
15082;SDS011;7640;53.116;6.878;2023-06-26T06:15:19;17.17;;;11.50;;
15082;SDS011;7640;53.116;6.878;2023-06-26T06:17:49;14.18;;;9.40;;
15082;SDS011;7640;53.116;6.878;2023-06-26T06:20:22;13.77;;;9.70;;
15082;SDS011;7640;53.116;6.878;2023-06-26T06:22:59;12.43;;;8.88;;
15082;SDS011;7640;53.116;6.878;2023-06-26T06:25:30;11.60;;;8.83;;
15082;SDS011;7640;53.116;6.878;2023-06-26T06:28:03;10.80;;;7.78;;
15082;SDS011;7640;53.116;6.878;2023-06-26T06:30:35;10.85;;;7.22;;
15082;SDS011;7640;53.116;6.878;2023-06-26T06:33:11;13.15;;;7.70;;
15082;SDS011;7640;53.116;6.878;2023-06-26T06:35:44;16.42;;;7.53;;
15082;SDS011;7640;53.116;6.878;2023-06-26T06:38:14;12.35;;;7.32;;
15082;SDS011;7640;53.116;6.878;2023-06-26T06:40:46;12.23;;;6.63;;
15082;SDS011;7640;53.116;6.878;2023-06-26T06:43:17;10.40;;;5.72;;
15082;SDS011;7640;53.116;6.878;2023-06-26T06:45:48;10.18;;;6.40;;
15082;SDS011;7640;53.116;6.878;2023-06-26T06:48:19;11.80;;;5.85;;
15082;SDS011;7640;53.116;6.878;2023-06-26T06:50:55;12.32;;;5.70;;
15082;SDS011;7640;53.116;6.878;2023-06-26T06:53:26;12.38;;;5.40;;
15082;SDS011;7640;53.116;6.878;2023-06-26T06:55:57;8.37;;;4.63;;
15082;SDS011;7640;53.116;6.878;2023-06-26T06:58:28;10.38;;;4.93;;
15082;SDS011;7640;53.116;6.878;2023-06-26T07:01:00;10.90;;;4.85;;
15082;SDS011;7640;53.116;6.878;2023-06-26T07:03:32;7.72;;;4.28;;
15082;SDS011;7640;53.116;6.878;2023-06-26T07:06:04;8.30;;;4.27;;
15082;SDS011;7640;53.116;6.878;2023-06-26T07:08:40;7.60;;;4.23;;
15082;SDS011;7640;53.116;6.878;2023-06-26T07:11:11;8.27;;;3.85;;
15082;SDS011;7640;53.116;6.878;2023-06-26T07:13:46;9.45;;;4.13;;
15082;SDS011;7640;53.116;6.878;2023-06-26T07:16:17;8.65;;;3.85;;
15082;SDS011;7640;53.116;6.878;2023-06-26T07:18:49;9.35;;;3.63;;
15082;SDS011;7640;53.116;6.878;2023-06-26T07:21:22;8.25;;;3.60;;
15082;SDS011;7640;53.116;6.878;2023-06-26T07:23:53;8.65;;;3.50;;
15082;SDS011;7640;53.116;6.878;2023-06-26T07:26:23;7.28;;;3.25;;
15082;SDS011;7640;53.116;6.878;2023-06-26T07:29:06;8.00;;;3.28;;
15082;SDS011;7640;53.116;6.878;2023-06-26T07:31:36;8.27;;;3.45;;
15082;SDS011;7640;53.116;6.878;2023-06-26T07:34:16;8.93;;;3.70;;
15082;SDS011;7640;53.116;6.878;2023-06-26T07:36:48;7.75;;;3.10;;
15082;SDS011;7640;53.116;6.878;2023-06-26T07:39:26;6.75;;;3.10;;
15082;SDS011;7640;53.116;6.878;2023-06-26T07:41:56;4.57;;;2.35;;
15082;SDS011;7640;53.116;6.878;2023-06-26T07:44:28;4.45;;;2.50;;
15082;SDS011;7640;53.116;6.878;2023-06-26T07:46:57;3.88;;;2.30;;
15082;SDS011;7640;53.116;6.878;2023-06-26T07:49:29;5.65;;;2.42;;
15082;SDS011;7640;53.116;6.878;2023-06-26T07:52:01;6.78;;;2.53;;
15082;SDS011;7640;53.116;6.878;2023-06-26T07:54:33;4.93;;;2.60;;
15082;SDS011;7640;53.116;6.878;2023-06-26T07:57:06;5.88;;;2.50;;
15082;SDS011;7640;53.116;6.878;2023-06-26T07:59:39;6.60;;;3.00;;
15082;SDS011;7640;53.116;6.878;2023-06-26T08:02:10;4.93;;;2.28;;
15082;SDS011;7640;53.116;6.878;2023-06-26T08:04:41;4.60;;;2.78;;
15082;SDS011;7640;53.116;6.878;2023-06-26T08:07:15;5.15;;;2.25;;
15082;SDS011;7640;53.116;6.878;2023-06-26T08:09:46;6.72;;;2.75;;
15082;SDS011;7640;53.116;6.878;2023-06-26T08:12:17;5.10;;;2.70;;
15082;SDS011;7640;53.116;6.878;2023-06-26T08:14:47;5.28;;;2.38;;
15082;SDS011;7640;53.116;6.878;2023-06-26T08:17:17;5.97;;;2.65;;
15082;SDS011;7640;53.116;6.878;2023-06-26T08:19:47;6.30;;;2.45;;
15082;SDS011;7640;53.116;6.878;2023-06-26T08:22:21;4.40;;;2.00;;
15082;SDS011;7640;53.116;6.878;2023-06-26T08:24:54;3.88;;;2.10;;
15082;SDS011;7640;53.116;6.878;2023-06-26T08:27:25;5.05;;;2.22;;
15082;SDS011;7640;53.116;6.878;2023-06-26T08:29:59;4.18;;;1.95;;
15082;SDS011;7640;53.116;6.878;2023-06-26T08:32:32;4.93;;;1.90;;
15082;SDS011;7640;53.116;6.878;2023-06-26T08:35:20;6.00;;;2.00;;
15082;SDS011;7640;53.116;6.878;2023-06-26T08:38:14;5.40;;;2.10;;
15082;SDS011;7640;53.116;6.878;2023-06-26T08:40:47;5.47;;;1.90;;
15082;SDS011;7640;53.116;6.878;2023-06-26T08:43:17;3.33;;;1.73;;
15082;SDS011;7640;53.116;6.878;2023-06-26T08:45:50;5.13;;;1.83;;
15082;SDS011;7640;53.116;6.878;2023-06-26T08:48:20;6.13;;;2.10;;
15082;SDS011;7640;53.116;6.878;2023-06-26T08:50:56;4.53;;;2.13;;
15082;SDS011;7640;53.116;6.878;2023-06-26T08:53:36;5.38;;;2.15;;
15082;SDS011;7640;53.116;6.878;2023-06-26T08:56:17;3.03;;;2.10;;
15082;SDS011;7640;53.116;6.878;2023-06-26T08:58:49;4.63;;;2.33;;
15082;SDS011;7640;53.116;6.878;2023-06-26T09:01:21;5.97;;;2.10;;
15082;SDS011;7640;53.116;6.878;2023-06-26T09:03:54;3.65;;;2.17;;
15082;SDS011;7640;53.116;6.878;2023-06-26T09:06:27;4.05;;;2.13;;
15082;SDS011;7640;53.116;6.878;2023-06-26T09:08:59;5.10;;;2.28;;
15082;SDS011;7640;53.116;6.878;2023-06-26T09:11:36;4.03;;;2.10;;
15082;SDS011;7640;53.116;6.878;2023-06-26T09:14:07;3.95;;;2.20;;
15082;SDS011;7640;53.116;6.878;2023-06-26T09:16:40;3.15;;;2.08;;
15082;SDS011;7640;53.116;6.878;2023-06-26T09:19:16;4.50;;;2.20;;
15082;SDS011;7640;53.116;6.878;2023-06-26T09:21:49;4.60;;;2.20;;
15082;SDS011;7640;53.116;6.878;2023-06-26T09:24:30;4.88;;;2.05;;
15082;SDS011;7640;53.116;6.878;2023-06-26T09:27:04;5.47;;;2.65;;
15082;SDS011;7640;53.116;6.878;2023-06-26T09:29:34;4.18;;;2.35;;
15082;SDS011;7640;53.116;6.878;2023-06-26T09:32:08;3.97;;;2.40;;
15082;SDS011;7640;53.116;6.878;2023-06-26T09:34:52;3.50;;;2.30;;
15082;SDS011;7640;53.116;6.878;2023-06-26T09:37:24;5.18;;;2.42;;
15082;SDS011;7640;53.116;6.878;2023-06-26T09:40:04;4.65;;;2.22;;
15082;SDS011;7640;53.116;6.878;2023-06-26T09:42:47;4.68;;;2.63;;
15082;SDS011;7640;53.116;6.878;2023-06-26T09:45:19;4.45;;;2.40;;
15082;SDS011;7640;53.116;6.878;2023-06-26T09:47:51;5.55;;;2.40;;
15082;SDS011;7640;53.116;6.878;2023-06-26T09:50:22;4.32;;;2.38;;
15082;SDS011;7640;53.116;6.878;2023-06-26T09:52:54;5.30;;;2.20;;
15082;SDS011;7640;53.116;6.878;2023-06-26T09:55:29;5.38;;;2.28;;
15082;SDS011;7640;53.116;6.878;2023-06-26T09:58:07;5.05;;;2.08;;
15082;SDS011;7640;53.116;6.878;2023-06-26T10:00:42;5.93;;;2.30;;
15082;SDS011;7640;53.116;6.878;2023-06-26T10:03:12;5.85;;;2.30;;
15082;SDS011;7640;53.116;6.878;2023-06-26T10:05:43;4.90;;;2.15;;
15082;SDS011;7640;53.116;6.878;2023-06-26T10:08:19;5.40;;;2.40;;
15082;SDS011;7640;53.116;6.878;2023-06-26T10:10:55;4.35;;;2.65;;
15082;SDS011;7640;53.116;6.878;2023-06-26T10:13:27;3.33;;;2.30;;
15082;SDS011;7640;53.116;6.878;2023-06-26T10:16:08;4.88;;;2.38;;
15082;SDS011;7640;53.116;6.878;2023-06-26T10:18:41;3.95;;;2.55;;
15082;SDS011;7640;53.116;6.878;2023-06-26T10:21:12;3.15;;;2.47;;
15082;SDS011;7640;53.116;6.878;2023-06-26T10:23:43;4.75;;;2.35;;
15082;SDS011;7640;53.116;6.878;2023-06-26T10:26:16;4.55;;;2.45;;
15082;SDS011;7640;53.116;6.878;2023-06-26T10:28:52;4.32;;;2.53;;
15082;SDS011;7640;53.116;6.878;2023-06-26T10:31:23;3.58;;;2.10;;
15082;SDS011;7640;53.116;6.878;2023-06-26T10:33:59;4.05;;;2.50;;
15082;SDS011;7640;53.116;6.878;2023-06-26T10:36:31;4.13;;;2.10;;
15082;SDS011;7640;53.116;6.878;2023-06-26T10:39:17;3.60;;;2.53;;
15082;SDS011;7640;53.116;6.878;2023-06-26T10:41:50;4.82;;;2.50;;
15082;SDS011;7640;53.116;6.878;2023-06-26T10:44:41;6.38;;;2.53;;
15082;SDS011;7640;53.116;6.878;2023-06-26T10:47:29;5.07;;;2.88;;
15082;SDS011;7640;53.116;6.878;2023-06-26T10:50:19;3.40;;;2.55;;
15082;SDS011;7640;53.116;6.878;2023-06-26T10:53:09;4.00;;;2.33;;
15082;SDS011;7640;53.116;6.878;2023-06-26T10:55:49;2.58;;;2.05;;
15082;SDS011;7640;53.116;6.878;2023-06-26T10:58:34;4.95;;;2.72;;
15082;SDS011;7640;53.116;6.878;2023-06-26T11:01:18;3.72;;;2.60;;
15082;SDS011;7640;53.116;6.878;2023-06-26T11:04:04;3.88;;;2.70;;
15082;SDS011;7640;53.116;6.878;2023-06-26T11:06:37;4.57;;;2.60;;
15082;SDS011;7640;53.116;6.878;2023-06-26T11:09:14;3.50;;;2.40;;
15082;SDS011;7640;53.116;6.878;2023-06-26T11:11:59;3.63;;;2.30;;
15082;SDS011;7640;53.116;6.878;2023-06-26T11:14:34;3.30;;;2.47;;
15082;SDS011;7640;53.116;6.878;2023-06-26T11:17:08;4.53;;;2.17;;
15082;SDS011;7640;53.116;6.878;2023-06-26T11:19:43;5.47;;;2.15;;
15082;SDS011;7640;53.116;6.878;2023-06-26T11:22:15;2.50;;;2.30;;
15082;SDS011;7640;53.116;6.878;2023-06-26T11:24:46;5.20;;;2.78;;
15082;SDS011;7640;53.116;6.878;2023-06-26T11:27:17;6.55;;;2.92;;
15082;SDS011;7640;53.116;6.878;2023-06-26T11:29:55;2.67;;;2.28;;
15082;SDS011;7640;53.116;6.878;2023-06-26T11:32:27;4.05;;;2.30;;
15082;SDS011;7640;53.116;6.878;2023-06-26T11:35:01;2.45;;;2.15;;
15082;SDS011;7640;53.116;6.878;2023-06-26T11:37:35;2.60;;;1.92;;
15082;SDS011;7640;53.116;6.878;2023-06-26T11:40:19;3.90;;;2.00;;
15082;SDS011;7640;53.116;6.878;2023-06-26T11:42:55;3.55;;;1.60;;
15082;SDS011;7640;53.116;6.878;2023-06-26T11:45:30;4.60;;;1.73;;
15082;SDS011;7640;53.116;6.878;2023-06-26T11:48:02;3.10;;;1.80;;
15082;SDS011;7640;53.116;6.878;2023-06-26T11:50:37;5.50;;;2.15;;
15082;SDS011;7640;53.116;6.878;2023-06-26T11:53:14;4.72;;;2.35;;
15082;SDS011;7640;53.116;6.878;2023-06-26T11:55:45;2.97;;;2.00;;
15082;SDS011;7640;53.116;6.878;2023-06-26T11:58:17;4.80;;;1.70;;
15082;SDS011;7640;53.116;6.878;2023-06-26T12:00:52;4.25;;;1.83;;
15082;SDS011;7640;53.116;6.878;2023-06-26T12:03:29;3.63;;;1.60;;
15082;SDS011;7640;53.116;6.878;2023-06-26T12:06:02;2.20;;;1.45;;
15082;SDS011;7640;53.116;6.878;2023-06-26T12:08:34;3.17;;;2.00;;
15082;SDS011;7640;53.116;6.878;2023-06-26T12:11:14;3.67;;;1.70;;
15082;SDS011;7640;53.116;6.878;2023-06-26T12:13:46;2.78;;;1.38;;
15082;SDS011;7640;53.116;6.878;2023-06-26T12:16:22;3.67;;;1.90;;
15082;SDS011;7640;53.116;6.878;2023-06-26T12:18:58;4.20;;;1.50;;
15082;SDS011;7640;53.116;6.878;2023-06-26T12:21:44;2.17;;;1.10;;
15082;SDS011;7640;53.116;6.878;2023-06-26T12:24:19;8.93;;;1.70;;
15082;SDS011;7640;53.116;6.878;2023-06-26T12:26:54;2.97;;;1.40;;
15082;SDS011;7640;53.116;6.878;2023-06-26T12:29:31;3.90;;;1.60;;
15082;SDS011;7640;53.116;6.878;2023-06-26T12:32:10;3.40;;;1.25;;
15082;SDS011;7640;53.116;6.878;2023-06-26T12:34:47;4.20;;;1.45;;
15082;SDS011;7640;53.116;6.878;2023-06-26T12:37:20;3.83;;;1.52;;
15082;SDS011;7640;53.116;6.878;2023-06-26T12:39:51;2.95;;;1.20;;
15082;SDS011;7640;53.116;6.878;2023-06-26T12:42:24;2.13;;;1.30;;
15082;SDS011;7640;53.116;6.878;2023-06-26T12:44:57;5.07;;;1.73;;
15082;SDS011;7640;53.116;6.878;2023-06-26T12:47:39;2.17;;;1.40;;
15082;SDS011;7640;53.116;6.878;2023-06-26T12:50:14;3.88;;;1.45;;
15082;SDS011;7640;53.116;6.878;2023-06-26T12:52:47;4.43;;;1.90;;
15082;SDS011;7640;53.116;6.878;2023-06-26T12:55:16;4.78;;;1.40;;
15082;SDS011;7640;53.116;6.878;2023-06-26T12:57:47;3.85;;;1.60;;
15082;SDS011;7640;53.116;6.878;2023-06-26T13:00:17;5.85;;;1.48;;
15082;SDS011;7640;53.116;6.878;2023-06-26T13:02:55;3.03;;;1.33;;
15082;SDS011;7640;53.116;6.878;2023-06-26T13:05:26;2.30;;;1.40;;
15082;SDS011;7640;53.116;6.878;2023-06-26T13:08:06;4.43;;;1.40;;
15082;SDS011;7640;53.116;6.878;2023-06-26T13:10:36;4.13;;;1.48;;
15082;SDS011;7640;53.116;6.878;2023-06-26T13:13:07;3.92;;;1.40;;
15082;SDS011;7640;53.116;6.878;2023-06-26T13:15:38;4.63;;;1.50;;
15082;SDS011;7640;53.116;6.878;2023-06-26T13:18:17;4.15;;;1.70;;
15082;SDS011;7640;53.116;6.878;2023-06-26T13:20:47;3.20;;;1.63;;
15082;SDS011;7640;53.116;6.878;2023-06-26T13:23:17;4.18;;;1.70;;
15082;SDS011;7640;53.116;6.878;2023-06-26T13:25:47;4.40;;;1.65;;
15082;SDS011;7640;53.116;6.878;2023-06-26T13:28:19;3.78;;;1.42;;
15082;SDS011;7640;53.116;6.878;2023-06-26T13:30:49;3.72;;;1.50;;
15082;SDS011;7640;53.116;6.878;2023-06-26T13:33:20;3.35;;;1.60;;
15082;SDS011;7640;53.116;6.878;2023-06-26T13:35:53;5.88;;;1.70;;
15082;SDS011;7640;53.116;6.878;2023-06-26T13:38:24;6.78;;;2.00;;
15082;SDS011;7640;53.116;6.878;2023-06-26T13:40:55;3.83;;;1.83;;
15082;SDS011;7640;53.116;6.878;2023-06-26T13:43:30;3.92;;;1.95;;
15082;SDS011;7640;53.116;6.878;2023-06-26T13:46:03;4.03;;;1.33;;
15082;SDS011;7640;53.116;6.878;2023-06-26T13:48:38;4.25;;;1.45;;
15082;SDS011;7640;53.116;6.878;2023-06-26T13:51:08;4.25;;;1.50;;
15082;SDS011;7640;53.116;6.878;2023-06-26T13:53:39;3.85;;;1.70;;
15082;SDS011;7640;53.116;6.878;2023-06-26T13:56:10;4.97;;;1.60;;
15082;SDS011;7640;53.116;6.878;2023-06-26T13:58:41;3.72;;;1.80;;
15082;SDS011;7640;53.116;6.878;2023-06-26T14:01:13;4.43;;;1.95;;
15082;SDS011;7640;53.116;6.878;2023-06-26T14:03:48;4.30;;;1.73;;
15082;SDS011;7640;53.116;6.878;2023-06-26T14:06:21;3.33;;;1.60;;
15082;SDS011;7640;53.116;6.878;2023-06-26T14:08:52;3.58;;;1.58;;
15082;SDS011;7640;53.116;6.878;2023-06-26T14:11:22;2.60;;;1.50;;
15082;SDS011;7640;53.116;6.878;2023-06-26T14:13:52;4.72;;;1.55;;
15082;SDS011;7640;53.116;6.878;2023-06-26T14:16:23;2.63;;;1.52;;
15082;SDS011;7640;53.116;6.878;2023-06-26T14:18:58;4.05;;;1.50;;
15082;SDS011;7640;53.116;6.878;2023-06-26T14:21:33;4.85;;;1.70;;
15082;SDS011;7640;53.116;6.878;2023-06-26T14:24:03;3.35;;;1.60;;
15082;SDS011;7640;53.116;6.878;2023-06-26T14:26:36;3.90;;;1.52;;
15082;SDS011;7640;53.116;6.878;2023-06-26T14:29:06;3.50;;;1.63;;
15082;SDS011;7640;53.116;6.878;2023-06-26T14:31:35;3.35;;;1.60;;
15082;SDS011;7640;53.116;6.878;2023-06-26T14:34:07;4.22;;;1.83;;
15082;SDS011;7640;53.116;6.878;2023-06-26T14:36:37;3.75;;;1.83;;
15082;SDS011;7640;53.116;6.878;2023-06-26T14:39:13;4.00;;;1.92;;
15082;SDS011;7640;53.116;6.878;2023-06-26T14:41:45;3.83;;;1.60;;
15082;SDS011;7640;53.116;6.878;2023-06-26T14:44:16;4.50;;;1.73;;
15082;SDS011;7640;53.116;6.878;2023-06-26T14:46:46;3.78;;;1.60;;
15082;SDS011;7640;53.116;6.878;2023-06-26T14:49:18;4.65;;;1.95;;
15082;SDS011;7640;53.116;6.878;2023-06-26T14:51:51;5.63;;;1.50;;
15082;SDS011;7640;53.116;6.878;2023-06-26T14:54:22;3.45;;;1.48;;
15082;SDS011;7640;53.116;6.878;2023-06-26T14:56:56;4.50;;;1.42;;
15082;SDS011;7640;53.116;6.878;2023-06-26T14:59:39;3.55;;;1.90;;
15082;SDS011;7640;53.116;6.878;2023-06-26T15:02:09;3.22;;;1.45;;
15082;SDS011;7640;53.116;6.878;2023-06-26T15:04:41;2.58;;;1.50;;
15082;SDS011;7640;53.116;6.878;2023-06-26T15:07:14;2.25;;;1.45;;
15082;SDS011;7640;53.116;6.878;2023-06-26T15:09:44;3.35;;;1.55;;
15082;SDS011;7640;53.116;6.878;2023-06-26T15:12:15;3.70;;;1.60;;
15082;SDS011;7640;53.116;6.878;2023-06-26T15:14:46;3.20;;;1.52;;
15082;SDS011;7640;53.116;6.878;2023-06-26T15:17:16;3.40;;;1.60;;
15082;SDS011;7640;53.116;6.878;2023-06-26T15:19:49;4.60;;;1.48;;
15082;SDS011;7640;53.116;6.878;2023-06-26T15:22:21;4.50;;;1.70;;
15082;SDS011;7640;53.116;6.878;2023-06-26T15:24:57;6.40;;;1.83;;
15082;SDS011;7640;53.116;6.878;2023-06-26T15:27:35;3.95;;;1.40;;
15082;SDS011;7640;53.116;6.878;2023-06-26T15:30:12;3.05;;;1.40;;